Time;durP1;ratioP1;P1;durP2;ratioP2;P2;SDS_P1;SDS_P2;PMS_P1;PMS_P2;Temp;Humidity;BMP_temperature;BMP_pressure;BME280_temperature;BME280_humidity;BME280_pressure;Samples;Min_cycle;Max_cycle;Signal;HPM_P1;HPM_P2
2022/10/26 00:02:23;;;;;;;0.10;0.10;;;;;;;12.88;72.23;101436.56;5073236;28;20074;-78
2022/10/26 00:04:49;;;;;;;0.10;0.10;;;;;;;12.88;72.52;101439.25;5073304;28;20028;-78
2022/10/26 00:07:15;;;;;;;0.10;0.10;;;;;;;12.88;72.20;101425.94;5073468;28;20052;-78
2022/10/26 00:09:42;;;;;;;0.10;0.10;;;;;;;12.89;72.39;101411.75;5072870;28;20024;-79
2022/10/26 00:12:08;;;;;;;0.10;0.10;;;;;;;12.91;72.13;101425.00;5072813;28;20503;-78
2022/10/26 00:14:34;;;;;;;0.28;0.15;;;;;;;12.93;72.45;101413.44;5072730;28;20035;-78
2022/10/26 00:17:00;;;;;;;0.08;0.08;;;;;;;12.97;72.20;101408.06;5072484;28;20541;-78
2022/10/26 00:19:26;;;;;;;0.22;0.22;;;;;;;12.99;72.17;101406.25;5072584;28;20081;-79
2022/10/26 00:21:53;;;;;;;0.10;0.10;;;;;;;13.01;72.23;101399.97;5072797;28;20396;-78
2022/10/26 00:24:19;;;;;;;0.03;0.03;;;;;;;12.99;72.37;101398.25;5073360;28;20103;-78
2022/10/26 00:26:46;;;;;;;0.38;0.38;;;;;;;13.01;72.42;101399.09;5073274;28;20491;-78
2022/10/26 00:29:12;;;;;;;0.05;0.05;;;;;;;13.00;72.36;101402.69;5072441;28;20029;-78
2022/10/26 00:31:39;;;;;;;0.10;0.10;;;;;;;12.98;72.20;101394.72;5072998;28;20035;-78
2022/10/26 00:34:05;;;;;;;0.10;0.10;;;;;;;12.95;71.87;101389.47;5073055;28;20595;-77
2022/10/26 00:36:31;;;;;;;0.10;0.10;;;;;;;12.94;72.58;101393.03;5073277;28;20029;-78
2022/10/26 00:38:58;;;;;;;0.10;0.10;;;;;;;12.94;72.14;101391.25;5072744;28;20028;-78
2022/10/26 00:41:28;;;;;;;0.10;0.10;;;;;;;12.95;72.67;101390.34;5073138;28;20027;-77
2022/10/26 00:43:55;;;;;;;0.20;0.20;;;;;;;12.95;72.57;101386.81;5075391;28;20025;-78
2022/10/26 00:46:25;;;;;;;1.08;1.05;;;;;;;12.99;72.69;101387.63;5076701;28;20479;-78
2022/10/26 00:48:57;;;;;;;0.10;0.10;;;;;;;13.02;72.78;101387.53;5073928;28;20035;-78
2022/10/26 00:51:32;;;;;;;0.10;0.10;;;;;;;13.06;73.14;101386.56;5077062;28;20487;-78
2022/10/26 00:54:02;;;;;;;0.45;0.45;;;;;;;13.10;72.84;101382.94;5076970;28;20035;-78
2022/10/26 00:56:30;;;;;;;0.28;0.28;;;;;;;13.13;73.00;101377.53;5076580;28;20032;-77
2022/10/26 00:59:02;;;;;;;0.30;0.30;;;;;;;13.18;72.91;101386.28;5076720;28;20032;-76
2022/10/26 01:01:31;;;;;;;0.10;0.10;;;;;;;13.21;72.77;101391.56;5076594;28;20110;-78
2022/10/26 01:03:59;;;;;;;0.10;0.10;;;;;;;13.22;72.84;101381.78;5070326;28;20276;-78
2022/10/26 01:06:27;;;;;;;0.10;0.10;;;;;;;13.23;72.92;101379.13;5075737;28;20438;-78
2022/10/26 01:08:54;;;;;;;0.10;0.10;;;;;;;13.25;73.14;101381.72;5075088;28;20506;-78
2022/10/26 01:11:20;;;;;;;0.08;0.08;;;;;;;13.25;72.90;101376.41;5076768;28;20032;-78
2022/10/26 01:13:49;;;;;;;0.10;0.10;;;;;;;13.28;72.82;101371.00;5076290;28;20025;-78
2022/10/26 01:16:33;;;;;;;0.10;0.10;;;;;;;13.32;72.91;101366.50;5076576;28;20460;-78
2022/10/26 01:19:36;;;;;;;0.10;0.10;;;;;;;13.33;72.55;101363.78;5075726;28;20548;-78
2022/10/26 01:22:13;;;;;;;0.13;0.13;;;;;;;13.28;73.06;101355.03;5075271;28;20403;-78
2022/10/26 01:27:40;;;;;;;0.20;0.20;;;;;;;13.26;72.26;101352.41;5105601;27;20323;-78
2022/10/26 01:39:12;;;;;;;0.10;0.10;;;;;;;13.23;72.39;101344.53;5102206;27;1172729;-78
2022/10/26 01:41:48;;;;;;;0.10;0.10;;;;;;;13.20;72.40;101335.72;5129349;28;20062;-77
2022/10/26 01:44:40;;;;;;;0.10;0.10;;;;;;;13.23;72.58;101339.19;5114358;27;20044;-78
2022/10/26 01:47:09;;;;;;;0.10;0.10;;;;;;;13.18;72.79;101332.22;5109100;28;20026;-77
2022/10/26 01:49:41;;;;;;;0.10;0.10;;;;;;;13.16;72.77;101328.72;5106235;28;20036;-77
2022/10/26 01:52:09;;;;;;;0.15;0.15;;;;;;;13.14;73.13;101327.88;5110250;28;20020;-77
2022/10/26 01:54:36;;;;;;;0.10;0.10;;;;;;;13.15;72.71;101332.31;5109314;28;20039;-77
2022/10/26 01:57:05;;;;;;;0.60;0.60;;;;;;;13.13;73.20;101334.97;5110730;28;20020;-78
2022/10/26 02:00:08;;;;;;;0.13;0.13;;;;;;;13.20;72.57;101333.94;5104480;28;20036;-78
2022/10/26 02:11:08;;;;;;;0.10;0.10;;;;;;;13.34;73.03;101300.81;5072217;27;1868367;-78
2022/10/26 02:14:06;;;;;;;0.10;0.10;;;;;;;13.38;72.88;101297.19;5109011;28;20031;-78
2022/10/26 02:16:55;;;;;;;0.10;0.10;;;;;;;13.41;72.86;101307.78;5090997;28;20491;-78
2022/10/26 02:19:31;;;;;;;0.10;0.10;;;;;;;13.43;72.83;101305.91;5110267;28;20055;-78
2022/10/26 02:22:04;;;;;;;0.85;0.85;;;;;;;13.39;72.99;101310.44;5109653;28;20027;-77
2022/10/26 02:24:33;;;;;;;0.10;0.10;;;;;;;13.39;72.74;101307.78;5111370;28;20037;-77
2022/10/26 02:27:02;;;;;;;0.10;0.10;;;;;;;13.36;72.66;101304.31;5102537;28;20020;-78
2022/10/26 02:29:30;;;;;;;0.10;0.10;;;;;;;13.32;72.81;101305.28;5108594;28;20031;-77
2022/10/26 02:31:57;;;;;;;0.47;0.47;;;;;;;13.29;72.57;101310.69;5089842;28;20495;-77
2022/10/26 02:34:27;;;;;;;0.17;0.17;;;;;;;13.30;73.38;101304.47;5093060;28;20064;-78
2022/10/26 02:36:56;;;;;;;0.52;0.52;;;;;;;13.31;73.35;101301.75;5091027;28;20028;-78
2022/10/26 02:39:25;;;;;;;0.20;0.20;;;;;;;13.34;73.13;101303.47;5092842;28;20027;-77
2022/10/26 02:41:53;;;;;;;0.85;0.85;;;;;;;13.36;73.24;101305.19;5092118;28;20027;-78
2022/10/26 02:46:57;;;;;;;0.10;0.10;;;;;;;13.43;72.61;101289.94;5108992;27;20387;-78
2022/10/26 02:49:23;;;;;;;0.10;0.10;;;;;;;13.44;72.99;101291.72;5105633;28;20491;-77
2022/10/26 02:52:22;;;;;;;0.25;0.25;;;;;;;13.50;72.65;101291.56;5110576;28;20499;-77
2022/10/26 02:55:13;;;;;;;0.20;0.20;;;;;;;13.45;72.98;101288.13;5099939;28;20064;-78
2022/10/26 02:57:43;;;;;;;0.10;0.10;;;;;;;13.46;72.86;101303.19;5090387;28;20023;-76
2022/10/26 03:00:14;;;;;;;0.10;0.10;;;;;;;13.48;72.45;101293.38;5090154;28;20032;-78
2022/10/26 03:02:42;;;;;;;1.75;1.65;;;;;;;13.50;73.07;101296.88;5091247;28;20031;-78
2022/10/26 03:05:14;;;;;;;0.75;0.75;;;;;;;13.55;73.16;101302.97;5099971;28;20109;-77
2022/10/26 03:07:40;;;;;;;0.10;0.10;;;;;;;13.54;73.03;101295.88;5087960;28;20077;-77
2022/10/26 03:10:06;;;;;;;0.20;0.20;;;;;;;13.66;72.80;101296.50;5090180;28;20032;-78
2022/10/26 03:12:32;;;;;;;0.10;0.10;;;;;;;13.71;72.58;101294.59;5089927;28;20024;-78
2022/10/26 03:14:59;;;;;;;0.10;0.10;;;;;;;13.72;72.44;101293.66;5089803;28;20396;-78
2022/10/26 03:17:25;;;;;;;0.63;0.63;;;;;;;13.72;72.43;101291.88;5090659;28;20111;-78
2022/10/26 03:19:51;;;;;;;0.10;0.10;;;;;;;13.73;72.21;101288.31;5089522;28;20028;-78
2022/10/26 03:22:17;;;;;;;0.15;0.15;;;;;;;13.72;72.25;101288.34;5090500;28;20032;-77
2022/10/26 03:24:43;;;;;;;0.95;0.95;;;;;;;13.73;72.09;101288.31;5089703;28;20036;-77
2022/10/26 03:27:09;;;;;;;0.10;0.10;;;;;;;13.72;72.19;101280.34;5090098;28;20043;-77
2022/10/26 03:29:35;;;;;;;0.10;0.10;;;;;;;13.69;71.82;101275.97;5090188;28;20032;-78
2022/10/26 03:32:01;;;;;;;0.20;0.20;;;;;;;13.66;71.93;101281.41;5090190;28;20495;-78
2022/10/26 03:34:27;;;;;;;0.40;0.40;;;;;;;13.67;72.02;101283.16;5090284;28;20099;-78
2022/10/26 03:36:53;;;;;;;0.15;0.15;;;;;;;13.67;72.17;101282.25;5089604;28;20119;-77
2022/10/26 03:39:19;;;;;;;0.73;0.38;;;;;;;13.69;72.14;101277.78;5089883;28;20054;-78
2022/10/26 03:41:46;;;;;;;0.10;0.10;;;;;;;13.72;72.08;101285.66;5089698;28;20039;-78
2022/10/26 03:44:12;;;;;;;0.10;0.10;;;;;;;13.74;72.10;101279.41;5089930;28;20435;-78
2022/10/26 03:46:39;;;;;;;0.75;0.75;;;;;;;13.76;72.32;101276.72;5089132;28;20036;-77
2022/10/26 03:49:05;;;;;;;0.10;0.10;;;;;;;13.78;72.31;101282.84;5089760;28;20071;-77
2022/10/26 03:51:31;;;;;;;0.20;0.20;;;;;;;13.79;72.23;101271.28;5089855;28;20390;-78
2022/10/26 03:53:57;;;;;;;0.10;0.10;;;;;;;13.80;72.39;101269.50;5090069;28;20036;-77
2022/10/26 03:56:24;;;;;;;0.10;0.10;;;;;;;13.83;72.15;101266.75;5087200;28;20113;-78
2022/10/26 03:58:50;;;;;;;0.10;0.10;;;;;;;13.84;72.07;101268.50;5076346;28;20028;-78
2022/10/26 04:01:16;;;;;;;0.10;0.10;;;;;;;13.86;72.23;101264.88;5075967;28;20039;-78
2022/10/26 04:03:42;;;;;;;0.10;0.10;;;;;;;13.83;72.31;101278.28;5076109;28;20050;-77
2022/10/26 04:06:08;;;;;;;0.13;0.13;;;;;;;13.85;72.38;101264.94;5076129;28;20028;-77
2022/10/26 04:08:34;;;;;;;0.30;0.30;;;;;;;13.86;72.05;101272.88;5075649;28;20097;-78
2022/10/26 04:11:00;;;;;;;0.10;0.10;;;;;;;13.89;72.18;101277.25;5075948;28;20400;-77
2022/10/26 04:13:27;;;;;;;0.10;0.10;;;;;;;13.88;72.16;101281.72;5075409;28;20503;-77
2022/10/26 04:15:53;;;;;;;0.10;0.10;;;;;;;13.89;72.08;101274.56;5076067;28;20509;-77
2022/10/26 04:18:19;;;;;;;0.10;0.10;;;;;;;13.90;72.30;101268.34;5075920;28;20041;-78
2022/10/26 04:20:45;;;;;;;0.00;0.00;;;;;;;13.82;72.14;101263.22;5075145;28;20039;-78
2022/10/26 04:23:14;;;;;;;0.10;0.10;;;;;;;13.85;72.11;101257.81;5075720;28;20036;-77
2022/10/26 04:25:41;;;;;;;0.10;0.10;;;;;;;13.84;72.01;101269.38;5075300;28;20017;-77
2022/10/26 04:28:08;;;;;;;0.10;0.10;;;;;;;13.83;72.11;101259.66;5076551;28;20092;-77
2022/10/26 04:30:35;;;;;;;0.10;0.10;;;;;;;13.82;72.00;101259.66;5074909;28;20032;-78
2022/10/26 04:33:02;;;;;;;0.30;0.30;;;;;;;13.83;72.23;101261.44;5075561;28;20213;-78
2022/10/26 04:35:28;;;;;;;0.10;0.10;;;;;;;13.82;72.08;101262.34;5075959;28;20031;-78
2022/10/26 04:37:59;;;;;;;0.10;0.10;;;;;;;13.85;71.89;101263.13;5076022;28;20131;-78
2022/10/26 04:40:26;;;;;;;0.10;0.10;;;;;;;13.85;72.27;101265.78;5075255;28;20060;-77
2022/10/26 04:42:53;;;;;;;0.10;0.10;;;;;;;13.79;72.51;101257.09;5075125;28;20035;-77
2022/10/26 04:45:19;;;;;;;0.20;0.20;;;;;;;13.80;72.42;101259.72;5075192;28;20028;-78
2022/10/26 04:47:45;;;;;;;0.10;0.10;;;;;;;13.87;72.24;101253.31;5075132;28;20039;-77
2022/10/26 04:50:13;;;;;;;0.10;0.10;;;;;;;13.89;72.12;101263.94;5075052;28;20480;-77
2022/10/26 04:52:39;;;;;;;0.10;0.10;;;;;;;13.87;72.30;101263.97;5074492;28;20021;-78
2022/10/26 04:55:06;;;;;;;0.13;0.13;;;;;;;13.90;72.39;101263.88;5075170;28;20035;-77
2022/10/26 04:57:33;;;;;;;0.10;0.10;;;;;;;13.89;72.21;101267.47;5075140;28;20131;-78
2022/10/26 05:00:00;;;;;;;0.55;0.55;;;;;;;13.96;72.51;101268.19;5074699;28;20029;-77
2022/10/26 05:02:27;;;;;;;0.25;0.25;;;;;;;13.98;72.37;101265.47;5073998;28;20082;-77
2022/10/26 05:04:53;;;;;;;0.30;0.30;;;;;;;14.00;72.40;101264.50;5074789;28;20024;-77
2022/10/26 05:07:20;;;;;;;0.10;0.10;;;;;;;14.02;72.60;101261.81;5074666;28;20035;-77
2022/10/26 05:09:46;;;;;;;0.10;0.10;;;;;;;14.06;72.58;101260.81;5073639;28;20033;-78
2022/10/26 05:12:12;;;;;;;0.17;0.17;;;;;;;14.14;72.09;101264.09;5075302;28;20056;-77
2022/10/26 05:14:38;;;;;;;0.15;0.15;;;;;;;14.17;72.35;101266.72;5075160;28;20032;-77
2022/10/26 05:17:04;;;;;;;0.10;0.10;;;;;;;14.15;72.30;101273.84;5074607;28;20032;-78
2022/10/26 05:19:30;;;;;;;0.10;0.10;;;;;;;14.17;72.02;101265.84;5074362;28;20039;-78
2022/10/26 05:21:56;;;;;;;0.10;0.10;;;;;;;14.16;72.22;101262.28;5074800;28;20037;-77
2022/10/26 05:24:22;;;;;;;0.10;0.10;;;;;;;14.23;72.22;101266.53;5073240;28;20035;-78
2022/10/26 05:26:49;;;;;;;0.10;0.10;;;;;;;14.22;72.18;101270.09;5072920;28;20038;-77
2022/10/26 05:29:15;;;;;;;1.25;1.00;;;;;;;14.26;72.08;101264.72;5071796;28;20496;-77
2022/10/26 05:31:41;;;;;;;0.10;0.10;;;;;;;14.28;72.08;101257.53;5076591;28;20044;-77
2022/10/26 05:34:07;;;;;;;0.10;0.10;;;;;;;14.30;71.79;101261.88;5072461;28;20034;-77
2022/10/26 05:36:33;;;;;;;0.10;0.10;;;;;;;14.32;72.05;101261.88;5072572;28;20048;-77
2022/10/26 05:38:59;;;;;;;0.10;0.10;;;;;;;14.34;71.98;101270.66;5072737;28;20025;-77
2022/10/26 05:41:25;;;;;;;0.10;0.10;;;;;;;14.35;72.06;101264.44;5072490;28;20547;-78
2022/10/26 05:43:51;;;;;;;0.10;0.10;;;;;;;14.35;72.05;101264.44;5073967;28;20032;-78
2022/10/26 05:46:17;;;;;;;0.10;0.10;;;;;;;14.36;72.11;101264.38;5073885;28;20522;-78
2022/10/26 05:48:43;;;;;;;0.10;0.10;;;;;;;14.35;72.13;101269.75;5072811;28;20537;-77
2022/10/26 05:51:11;;;;;;;0.17;0.17;;;;;;;14.37;71.79;101265.28;5073850;28;20047;-78
2022/10/26 05:53:37;;;;;;;0.10;0.10;;;;;;;14.37;71.94;101270.59;5073793;28;20031;-77
2022/10/26 05:56:18;;;;;;;0.10;0.10;;;;;;;14.38;72.04;101264.31;5073384;28;20060;-78
2022/10/26 05:58:45;;;;;;;0.13;0.13;;;;;;;14.34;71.93;101265.34;5073308;28;20028;-77
2022/10/26 06:01:41;;;;;;;0.30;0.30;;;;;;;14.40;71.75;101267.81;5072686;28;20515;-78
2022/10/26 06:06:59;;;;;;;0.10;0.10;;;;;;;14.29;72.06;101256.59;5109943;27;20381;-77
2022/10/26 06:09:26;;;;;;;0.10;0.10;;;;;;;14.30;72.21;101258.38;5109050;28;20031;-78
2022/10/26 06:11:52;;;;;;;0.10;0.10;;;;;;;14.30;72.08;101255.69;5110596;28;20031;-78
2022/10/26 06:14:18;;;;;;;0.17;0.17;;;;;;;14.31;72.09;101257.44;5108919;28;20048;-77
2022/10/26 06:19:42;;;;;;;0.15;0.15;;;;;;;14.37;71.92;101246.59;5109751;27;20339;-77
2022/10/26 06:25:44;;;;;;;0.10;0.10;;;;;;;14.35;72.12;101262.63;5064972;28;20375;-78
2022/10/26 06:30:48;;;;;;;0.10;0.10;;;;;;;14.38;72.02;101282.97;5087413;28;20171;-78
2022/10/26 06:33:15;;;;;;;0.10;0.10;;;;;;;14.38;72.06;101274.97;5084551;28;20043;-77
2022/10/26 06:38:20;;;;;;;0.10;0.10;;;;;;;14.43;71.96;101274.84;5097525;27;1171648;-78
2022/10/26 06:40:50;;;;;;;0.10;0.10;;;;;;;14.43;71.82;101267.75;5129972;27;20061;-78
2022/10/26 06:43:24;;;;;;;0.00;0.00;;;;;;;14.43;71.89;101262.44;5130462;27;20021;-78
2022/10/26 06:45:59;;;;;;;0.10;0.10;;;;;;;14.44;71.83;101269.47;5129270;27;20024;-78
2022/10/26 06:48:28;;;;;;;0.10;0.10;;;;;;;14.41;71.85;101266.91;5129487;27;20034;-77
2022/10/26 06:50:55;;;;;;;0.03;0.03;;;;;;;14.35;72.00;101269.75;5128700;28;20114;-78
2022/10/26 06:53:28;;;;;;;0.10;0.10;;;;;;;14.37;72.02;101289.25;5130951;27;20023;-78
2022/10/26 06:55:56;;;;;;;0.10;0.10;;;;;;;14.36;71.80;101287.50;5126435;28;20125;-77
2022/10/26 06:58:28;;;;;;;0.10;0.10;;;;;;;14.37;71.85;101286.59;5130217;27;20043;-77
2022/10/26 07:00:55;;;;;;;0.20;0.20;;;;;;;14.32;71.95;101286.72;5130638;27;20050;-78
2022/10/26 07:03:21;;;;;;;1.52;1.42;;;;;;;14.30;72.10;101290.34;5130950;27;20495;-79
2022/10/26 07:05:48;;;;;;;0.10;0.10;;;;;;;14.24;72.03;101292.28;5128437;28;20053;-78
2022/10/26 07:08:14;;;;;;;0.17;0.17;;;;;;;14.24;72.08;101299.38;5130648;27;20095;-77
2022/10/26 07:10:41;;;;;;;0.10;0.10;;;;;;;14.21;72.25;101295.00;5130997;28;20060;-77
2022/10/26 07:13:09;;;;;;;0.32;0.30;;;;;;;14.21;72.38;101284.34;5131229;27;20505;-78
2022/10/26 07:15:37;;;;;;;0.10;0.10;;;;;;;14.26;72.05;101283.38;5132414;27;20049;-78
2022/10/26 07:18:05;;;;;;;0.10;0.10;;;;;;;14.23;72.21;101297.63;5130735;27;20442;-78
2022/10/26 07:20:40;;;;;;;0.10;0.10;;;;;;;14.22;72.20;101280.78;5131650;27;20055;-79
2022/10/26 07:23:09;;;;;;;0.20;0.20;;;;;;;14.19;72.01;101285.31;5132529;27;20494;-78
2022/10/26 07:25:38;;;;;;;0.10;0.10;;;;;;;14.22;72.37;101296.75;5132078;27;20040;-77
2022/10/26 07:28:06;;;;;;;0.10;0.10;;;;;;;14.28;72.17;101313.50;5132449;27;20471;-78
2022/10/26 07:30:32;;;;;;;0.10;0.10;;;;;;;14.23;72.38;101313.59;5116963;27;20016;-78
2022/10/26 07:33:00;;;;;;;0.80;0.80;;;;;;;14.29;72.54;101328.56;5131645;28;20043;-78
2022/10/26 07:35:26;;;;;;;0.00;0.00;;;;;;;14.31;72.41;101332.09;5126736;27;20020;-78
2022/10/26 07:37:56;;;;;;;0.10;0.10;;;;;;;14.35;72.45;101317.75;5119694;28;20027;-78
2022/10/26 07:40:22;;;;;;;0.10;0.10;;;;;;;14.37;72.48;101316.78;5128613;27;20081;-78
2022/10/26 07:42:48;;;;;;;0.55;0.55;;;;;;;14.45;72.20;101332.56;5127416;28;20019;-78
2022/10/26 07:45:14;;;;;;;0.00;0.00;;;;;;;14.42;72.66;101335.31;5130286;28;20039;-77
2022/10/26 07:47:41;;;;;;;0.03;0.03;;;;;;;14.49;72.43;101328.00;5128019;28;20019;-78
2022/10/26 07:50:07;;;;;;;0.10;0.10;;;;;;;14.49;72.63;101344.91;5117717;28;20047;-78
2022/10/26 07:52:35;;;;;;;0.10;0.10;;;;;;;14.50;72.66;101343.94;5116949;28;20046;-77
2022/10/26 07:55:01;;;;;;;0.20;0.20;;;;;;;14.60;72.46;101346.38;5117106;28;20019;-78
2022/10/26 07:57:28;;;;;;;0.10;0.10;;;;;;;14.67;72.48;101353.31;5116576;28;20028;-78
2022/10/26 07:59:54;;;;;;;3.60;1.30;;;;;;;14.75;72.50;101345.09;5117628;28;20036;-78
2022/10/26 08:02:20;;;;;;;0.10;0.10;;;;;;;14.85;72.18;101350.13;5117151;28;20039;-78
2022/10/26 08:04:46;;;;;;;0.30;0.30;;;;;;;14.90;72.15;101349.94;5118716;28;20110;-79
2022/10/26 08:07:12;;;;;;;0.10;0.10;;;;;;;14.94;71.96;101362.31;5118785;28;20499;-78
2022/10/26 08:09:38;;;;;;;1.15;1.15;;;;;;;14.96;72.03;101363.09;5118455;28;20036;-78
2022/10/26 08:12:04;;;;;;;0.47;0.47;;;;;;;15.03;71.98;101370.00;5116927;28;20043;-78
2022/10/26 08:14:30;;;;;;;0.85;0.85;;;;;;;15.10;71.97;101354.69;5116803;28;20039;-78
2022/10/26 08:16:56;;;;;;;0.30;0.30;;;;;;;15.19;71.71;101351.75;5116796;28;20038;-79
2022/10/26 08:19:22;;;;;;;0.10;0.10;;;;;;;15.27;71.60;101358.66;5116438;28;20028;-78
2022/10/26 08:21:48;;;;;;;6.80;0.55;;;;;;;15.33;71.62;101347.78;5116668;28;20047;-78
2022/10/26 08:24:14;;;;;;;0.10;0.10;;;;;;;15.43;71.73;101351.88;5117127;28;20031;-78
2022/10/26 08:26:41;;;;;;;1.20;0.50;;;;;;;15.52;71.81;101348.91;5116220;28;20104;-78
2022/10/26 08:29:07;;;;;;;0.10;0.10;;;;;;;15.63;71.35;101350.38;5106554;28;20031;-78
2022/10/26 08:31:33;;;;;;;0.10;0.10;;;;;;;15.69;71.59;101351.03;5119903;28;20040;-79
2022/10/26 08:34:00;;;;;;;1.17;1.13;;;;;;;15.79;71.58;101348.94;5117614;28;20024;-79
2022/10/26 08:36:27;;;;;;;0.10;0.10;;;;;;;15.87;71.29;101348.69;5117171;28;20037;-78
2022/10/26 08:38:53;;;;;;;0.20;0.20;;;;;;;15.97;71.22;101346.56;5117017;28;20471;-79
2022/10/26 08:41:43;;;;;;;0.10;0.10;;;;;;;16.07;71.23;101347.13;5117283;28;20040;-78
2022/10/26 08:44:32;;;;;;;0.05;0.05;;;;;;;16.18;70.62;101353.84;5116838;28;20055;-78
2022/10/26 08:47:06;;;;;;;1.00;0.95;;;;;;;16.26;70.82;101350.03;5116976;28;20024;-79
2022/10/26 08:49:43;;;;;;;0.28;0.28;;;;;;;16.35;70.64;101355.06;5116916;28;20023;-80
2022/10/26 08:52:14;;;;;;;0.10;0.10;;;;;;;16.48;70.86;101350.13;5111723;28;20137;-79
2022/10/26 08:54:47;;;;;;;0.10;0.10;;;;;;;16.61;70.53;101361.22;5116430;28;20394;-78
2022/10/26 08:57:27;;;;;;;0.30;0.30;;;;;;;16.76;70.57;101368.72;5115953;28;20032;-79
2022/10/26 09:00:04;;;;;;;0.10;0.10;;;;;;;16.90;70.43;101372.66;5115072;28;20551;-78
2022/10/26 09:02:31;;;;;;;0.28;0.28;;;;;;;17.00;70.16;101381.22;5115873;28;20105;-79
2022/10/26 09:04:58;;;;;;;0.10;0.10;;;;;;;17.08;69.38;101381.81;5116298;28;20023;-79
2022/10/26 09:07:49;;;;;;;0.45;0.45;;;;;;;17.29;69.54;101380.97;5117526;28;20027;-78
2022/10/26 09:15:53;;;;;;;0.10;0.10;;;;;;;17.49;68.39;101389.16;5046237;28;20365;-78
2022/10/26 09:18:46;;;;;;;0.50;0.50;;;;;;;17.49;68.28;101379.31;5048863;28;20326;-79
2022/10/26 09:21:39;;;;;;;0.10;0.10;;;;;;;17.56;69.00;101386.16;5040795;28;20049;-78
2022/10/26 09:24:29;;;;;;;0.03;0.03;;;;;;;17.61;68.32;101388.66;5041696;28;20072;-77
2022/10/26 09:27:21;;;;;;;0.10;0.10;;;;;;;17.68;68.62;101395.50;5043602;28;20112;-77
2022/10/26 09:29:50;;;;;;;0.10;0.10;;;;;;;17.70;67.92;101399.00;5041648;28;20045;-77
2022/10/26 09:32:31;;;;;;;0.88;0.88;;;;;;;17.89;68.43;101407.13;5043426;28;20041;-77
2022/10/26 09:35:03;;;;;;;0.93;0.55;;;;;;;17.92;67.98;101415.06;5043174;28;20013;-78
2022/10/26 09:37:39;;;;;;;0.20;0.20;;;;;;;18.05;68.01;101412.75;5037474;28;20029;-77
2022/10/26 09:40:16;;;;;;;0.10;0.10;;;;;;;18.03;67.36;101411.97;5037572;28;20033;-78
2022/10/26 09:42:58;;;;;;;0.10;0.10;;;;;;;18.18;67.70;101405.09;5042940;28;20027;-78
2022/10/26 09:45:32;;;;;;;0.10;0.10;;;;;;;18.26;67.37;101402.06;5048396;28;20079;-78
2022/10/26 09:48:10;;;;;;;0.43;0.43;;;;;;;18.27;67.13;101410.03;5048558;28;20280;-77
2022/10/26 09:50:43;;;;;;;0.38;0.38;;;;;;;18.39;67.35;101421.16;5034618;28;20120;-78
2022/10/26 09:53:09;;;;;;;0.30;0.30;;;;;;;18.44;67.02;101427.19;5046573;28;20386;-78
2022/10/26 09:55:42;;;;;;;0.17;0.17;;;;;;;18.57;66.44;101427.56;5047605;28;20116;-78
2022/10/26 09:58:16;;;;;;;0.10;0.10;;;;;;;18.61;66.21;101429.16;5036086;28;20025;-77
2022/10/26 10:00:43;;;;;;;0.17;0.17;;;;;;;18.67;66.13;101434.25;5044109;28;20457;-78
2022/10/26 10:03:28;;;;;;;0.10;0.10;;;;;;;18.80;65.52;101450.66;5045864;28;20030;-78
2022/10/26 10:06:15;;;;;;;0.10;0.10;;;;;;;18.88;65.63;101448.50;5046019;28;20017;-78
2022/10/26 10:08:42;;;;;;;0.10;0.10;;;;;;;18.89;65.57;101449.38;5048812;28;20017;-78
2022/10/26 10:11:11;;;;;;;0.55;0.55;;;;;;;19.02;65.72;101455.97;5047444;28;20485;-77
2022/10/26 10:13:42;;;;;;;0.28;0.28;;;;;;;19.01;65.34;101470.34;5046863;28;20168;-78
2022/10/26 10:16:24;;;;;;;0.10;0.10;;;;;;;19.09;65.21;101467.31;5038450;28;20038;-78
2022/10/26 10:18:55;;;;;;;0.10;0.10;;;;;;;19.13;65.07;101473.41;5037240;28;20022;-78
2022/10/26 10:21:38;;;;;;;0.10;0.10;;;;;;;19.14;64.54;101483.19;5040231;28;20042;-77
2022/10/26 10:24:23;;;;;;;0.10;0.10;;;;;;;19.25;64.68;101478.19;5031105;28;20448;-78
2022/10/26 10:29:52;;;;;;;0.10;0.10;;;;;;;19.29;64.73;101498.63;5090219;27;20375;-77
2022/10/26 10:32:22;;;;;;;0.20;0.20;;;;;;;19.29;64.77;101506.69;5090715;28;20032;-79
2022/10/26 10:34:50;;;;;;;0.15;0.15;;;;;;;19.24;64.83;101503.34;5083495;28;20310;-78
2022/10/26 10:37:37;;;;;;;0.20;0.20;;;;;;;19.31;64.90;101518.22;5090455;28;20020;-79
2022/10/26 10:40:14;;;;;;;0.10;0.10;;;;;;;19.26;65.14;101519.38;5090748;28;20020;-78
2022/10/26 10:42:43;;;;;;;0.80;0.80;;;;;;;19.22;65.14;101521.34;5089688;28;20111;-79
2022/10/26 10:45:27;;;;;;;0.10;0.10;;;;;;;19.17;65.07;101520.69;5079537;28;20056;-79
2022/10/26 10:48:19;;;;;;;0.10;0.10;;;;;;;19.20;65.38;101512.47;5074947;28;20503;-80
2022/10/26 10:53:37;;;;;;;0.10;0.10;;;;;;;19.30;65.18;101529.03;5097751;27;20355;-79
2022/10/26 10:59:21;;;;;;;1.60;0.57;;;;;;;19.56;65.29;101517.97;5094445;27;20385;-77
2022/10/26 11:02:09;;;;;;;0.10;0.10;;;;;;;19.66;64.94;101525.59;5093916;28;20043;-78
2022/10/26 11:07:12;;;;;;;1.25;0.85;;;;;;;19.84;64.51;101518.50;5097489;27;20719;-79
2022/10/26 11:09:43;;;;;;;0.10;0.10;;;;;;;19.92;64.47;101521.66;5075808;28;20103;-79
2022/10/26 11:12:17;;;;;;;0.20;0.20;;;;;;;20.01;63.60;101507.78;5075294;28;20025;-77
2022/10/26 11:14:52;;;;;;;0.10;0.10;;;;;;;20.07;63.95;101529.94;5075670;28;20059;-77
2022/10/26 11:17:24;;;;;;;0.10;0.10;;;;;;;20.09;63.81;101533.41;5081404;28;20051;-77
2022/10/26 11:22:58;;;;;;;0.20;0.20;;;;;;;20.20;63.22;101531.94;5094317;27;20363;-78
2022/10/26 11:25:29;;;;;;;2.47;2.28;;;;;;;20.24;62.97;101542.53;5076004;28;20033;-77
2022/10/26 11:28:00;;;;;;;1.08;1.08;;;;;;;20.21;62.47;101559.72;5074904;28;20032;-79
2022/10/26 11:30:29;;;;;;;0.10;0.10;;;;;;;20.26;63.05;101556.81;5073366;28;20033;-78
2022/10/26 11:33:05;;;;;;;0.40;0.38;;;;;;;20.28;63.07;101561.16;5073655;28;20029;-78
2022/10/26 11:35:55;;;;;;;0.20;0.20;;;;;;;20.39;62.93;101549.88;5073230;28;20025;-78
2022/10/26 11:44:01;;;;;;;0.10;0.10;;;;;;;20.59;62.87;101561.47;5106044;27;20743;-78
2022/10/26 11:46:47;;;;;;;0.10;0.10;;;;;;;20.60;61.93;101561.38;5090927;28;20024;-79
2022/10/26 11:49:42;;;;;;;0.20;0.20;;;;;;;20.68;62.13;101559.16;5088079;28;20020;-78
2022/10/26 11:54:55;;;;;;;0.10;0.10;;;;;;;20.76;62.54;101558.81;5061265;28;20381;-77
2022/10/26 11:57:24;;;;;;;0.32;0.30;;;;;;;20.83;61.96;101560.22;5044513;28;20083;-79
2022/10/26 11:59:58;;;;;;;0.10;0.10;;;;;;;20.84;61.65;101559.25;5047815;28;20083;-77
2022/10/26 12:02:25;;;;;;;0.10;0.10;;;;;;;20.89;61.64;101558.16;5048826;28;20029;-79
2022/10/26 12:05:05;;;;;;;0.30;0.30;;;;;;;20.92;60.30;101566.97;5051591;28;20481;-77
2022/10/26 12:07:36;;;;;;;0.17;0.15;;;;;;;20.99;60.05;101572.91;5052992;28;20035;-78
2022/10/26 12:10:05;;;;;;;0.10;0.10;;;;;;;20.95;59.58;101565.94;5054297;28;20021;-78
2022/10/26 12:18:15;;;;;;;0.10;0.10;;;;;;;20.91;59.63;101565.22;5108070;27;20330;-78
2022/10/26 12:21:03;;;;;;;0.10;0.10;;;;;;;20.99;59.67;101562.97;5101080;28;20071;-78
2022/10/26 12:23:32;;;;;;;0.20;0.20;;;;;;;20.99;59.96;101579.13;5107030;28;20123;-78
2022/10/26 12:26:36;;;;;;;0.10;0.10;;;;;;;21.13;60.17;101583.81;5109707;28;20060;-78
2022/10/26 12:34:24;;;;;;;1.90;0.68;;;;;;;21.28;58.58;101574.06;5105622;27;20333;-78
2022/10/26 12:39:32;;;;;;;0.93;0.93;;;;;;;21.28;58.85;101574.06;5059712;28;20364;-78
2022/10/26 12:55:56;;;;;;;0.20;0.20;;;;;;;21.70;57.92;101598.78;5101731;27;20137;-79
2022/10/26 13:07:12;;;;;;;0.10;0.10;;;;;;;21.68;57.36;101603.38;5048760;28;20392;-79
2022/10/26 13:09:38;;;;;;;0.10;0.10;;;;;;;21.55;56.76;101595.06;5047934;28;20029;-79
2022/10/26 13:12:04;;;;;;;0.25;0.25;;;;;;;21.70;56.81;101603.31;5045972;28;20120;-78
2022/10/26 13:14:35;;;;;;;0.00;0.00;;;;;;;21.81;56.64;101588.28;5043495;28;20417;-77
2022/10/26 13:17:05;;;;;;;0.40;0.40;;;;;;;21.86;56.49;101598.81;5036261;28;20029;-78
2022/10/26 13:19:43;;;;;;;0.30;0.30;;;;;;;21.95;56.69;101600.97;5041051;28;20060;-78
2022/10/26 13:22:25;;;;;;;0.10;0.10;;;;;;;22.08;56.43;101597.59;5032729;28;20030;-78
2022/10/26 13:24:54;;;;;;;0.10;0.10;;;;;;;22.12;56.59;101599.19;5033890;28;20111;-78